Time;durP1;ratioP1;P1;durP2;ratioP2;P2;SDS_P1;SDS_P2;PMS_P1;PMS_P2;Temp;Humidity;BMP_temperature;BMP_pressure;BME280_temperature;BME280_humidity;BME280_pressure;Samples;Min_cycle;Max_cycle;Signal;HPM_P1;HPM_P2
2023/12/09 00:01:42;;;;;;;1.50;1.40;;;22.70;57.60;;;;;;5055865;28;20472;-90
2023/12/09 00:04:10;;;;;;;2.43;1.43;;;22.70;57.60;;;;;;5055914;28;20445;-88
2023/12/09 00:06:37;;;;;;;1.83;1.67;;;22.80;57.70;;;;;;5054820;28;20429;-88
2023/12/09 00:09:03;;;;;;;1.90;1.70;;;22.80;57.70;;;;;;5055759;28;20455;-88
2023/12/09 00:11:30;;;;;;;2.07;1.20;;;22.70;57.70;;;;;;5055670;28;20929;-91
2023/12/09 00:14:03;;;;;;;1.77;1.40;;;22.70;57.70;;;;;;5055743;28;20991;-89
2023/12/09 00:16:30;;;;;;;1.60;1.50;;;22.70;57.70;;;;;;5055824;28;20559;-87
2023/12/09 00:18:57;;;;;;;1.40;1.20;;;22.60;57.60;;;;;;5055697;28;20447;-89
2023/12/09 00:21:25;;;;;;;1.87;1.70;;;22.60;57.60;;;;;;5055710;28;20469;-87
2023/12/09 00:23:52;;;;;;;1.50;1.30;;;22.60;57.60;;;;;;5055458;28;20533;-90
2023/12/09 00:26:18;;;;;;;1.60;1.47;;;22.70;57.80;;;;;;5068407;28;20792;-90
2023/12/09 00:28:46;;;;;;;1.87;1.67;;;22.60;57.70;;;;;;5075678;28;20447;-88
2023/12/09 00:31:13;;;;;;;1.83;1.70;;;22.60;57.70;;;;;;5075464;28;20433;-90
2023/12/09 00:33:40;;;;;;;1.80;1.27;;;22.60;57.70;;;;;;5075533;28;20433;-88
2023/12/09 00:36:07;;;;;;;1.60;1.30;;;22.60;57.70;;;;;;5075406;28;20490;-88
2023/12/09 00:38:35;;;;;;;2.13;1.60;;;22.60;57.70;;;;;;5075271;28;20522;-88
2023/12/09 00:41:02;;;;;;;1.97;1.27;;;22.60;57.80;;;;;;5075436;28;20432;-88
2023/12/09 00:43:29;;;;;;;1.80;1.33;;;22.50;57.60;;;;;;5075087;28;20429;-88
2023/12/09 00:45:56;;;;;;;2.00;1.23;;;22.50;57.70;;;;;;5075163;28;20443;-86
2023/12/09 00:48:23;;;;;;;2.53;1.33;;;22.50;57.70;;;;;;5074964;28;20468;-87
2023/12/09 00:50:49;;;;;;;1.30;1.20;;;22.50;57.70;;;;;;5074879;28;20432;-90
2023/12/09 00:53:16;;;;;;;2.53;1.57;;;22.50;57.70;;;;;;5075041;28;20432;-87
2023/12/09 00:55:45;;;;;;;2.23;1.43;;;22.50;57.70;;;;;;5075074;28;20531;-90
2023/12/09 00:58:11;;;;;;;2.27;1.27;;;22.50;57.70;;;;;;5074867;28;20440;-87
2023/12/09 01:00:38;;;;;;;2.43;1.13;;;22.50;57.80;;;;;;5074923;28;20439;-89
2023/12/09 01:03:05;;;;;;;2.40;1.47;;;22.50;57.70;;;;;;5074863;28;20424;-88
2023/12/09 01:05:32;;;;;;;1.53;1.20;;;22.50;57.80;;;;;;5074848;28;20435;-89
2023/12/09 01:07:58;;;;;;;1.40;1.20;;;22.50;57.80;;;;;;5074818;28;20444;-90
2023/12/09 01:10:25;;;;;;;1.73;1.13;;;22.50;57.90;;;;;;5074539;28;20452;-87
2023/12/09 01:12:53;;;;;;;1.70;1.30;;;22.50;57.90;;;;;;5074857;28;20439;-89
2023/12/09 01:15:20;;;;;;;1.50;1.30;;;22.50;57.90;;;;;;5074699;28;20436;-89
2023/12/09 01:17:47;;;;;;;1.40;1.10;;;22.50;57.90;;;;;;5073671;28;20490;-88
2023/12/09 01:20:15;;;;;;;1.30;1.20;;;22.50;57.90;;;;;;5074365;28;20442;-87
2023/12/09 01:22:41;;;;;;;1.83;1.50;;;22.50;57.80;;;;;;5074376;28;20448;-87
2023/12/09 01:25:09;;;;;;;1.63;1.53;;;22.50;57.80;;;;;;5074512;28;20814;-89
2023/12/09 01:27:36;;;;;;;3.07;1.77;;;22.50;57.80;;;;;;5090022;28;21038;-86
2023/12/09 01:30:05;;;;;;;1.33;1.23;;;22.50;57.70;;;;;;5074596;28;20935;-87
2023/12/09 01:32:32;;;;;;;1.20;1.10;;;22.50;57.70;;;;;;5074401;28;20441;-89
2023/12/09 01:34:59;;;;;;;1.40;1.30;;;22.50;57.70;;;;;;5074240;28;20448;-87
2023/12/09 01:37:26;;;;;;;1.70;1.23;;;22.50;57.70;;;;;;5074169;28;20484;-88
2023/12/09 01:39:52;;;;;;;1.43;1.20;;;22.50;57.70;;;;;;5073453;28;20456;-87
2023/12/09 01:42:19;;;;;;;2.10;1.30;;;22.50;57.70;;;;;;5072504;28;20445;-87
2023/12/09 01:44:46;;;;;;;1.50;1.40;;;22.50;57.70;;;;;;5072920;28;20448;-88
2023/12/09 01:47:14;;;;;;;1.30;1.13;;;22.50;57.70;;;;;;5073437;28;20470;-88
2023/12/09 01:49:42;;;;;;;1.20;1.10;;;22.50;57.70;;;;;;5073757;28;20437;-87
2023/12/09 01:52:09;;;;;;;1.63;1.30;;;22.60;57.70;;;;;;5073624;28;20436;-87
2023/12/09 01:54:36;;;;;;;2.90;1.50;;;22.60;57.70;;;;;;5073445;28;20831;-87
2023/12/09 01:57:03;;;;;;;1.47;1.37;;;22.60;57.70;;;;;;5073469;28;20487;-87
2023/12/09 01:59:31;;;;;;;1.40;0.97;;;22.60;57.80;;;;;;5073651;28;20439;-88
2023/12/09 02:01:58;;;;;;;1.33;1.10;;;22.60;57.70;;;;;;5073303;28;20432;-87
2023/12/09 02:04:27;;;;;;;2.33;1.43;;;22.60;57.70;;;;;;5073834;28;20507;-90
2023/12/09 02:06:54;;;;;;;2.10;1.40;;;22.60;57.70;;;;;;5072733;28;20827;-90
2023/12/09 02:09:21;;;;;;;1.80;1.30;;;22.60;57.60;;;;;;5073503;28;20456;-89
2023/12/09 02:11:53;;;;;;;1.50;1.10;;;22.60;57.60;;;;;;5073649;28;20435;-88
2023/12/09 02:14:25;;;;;;;1.50;1.30;;;22.60;57.60;;;;;;5073630;28;21010;-88
2023/12/09 02:16:57;;;;;;;2.10;1.67;;;22.60;57.60;;;;;;5073710;28;20484;-90
2023/12/09 02:19:27;;;;;;;2.77;1.47;;;22.60;57.60;;;;;;5073644;28;20432;-90
2023/12/09 02:22:00;;;;;;;1.57;1.20;;;22.60;57.60;;;;;;5073497;28;20436;-87
2023/12/09 02:24:29;;;;;;;2.10;1.77;;;22.60;57.60;;;;;;5073409;28;20444;-87
2023/12/09 02:27:02;;;;;;;1.20;1.03;;;22.60;57.60;;;;;;5073522;28;20429;-87
2023/12/09 02:29:35;;;;;;;1.57;1.20;;;22.60;58.10;;;;;;5073569;28;20950;-88
2023/12/09 02:32:06;;;;;;;1.20;1.00;;;22.60;57.60;;;;;;5073183;28;20437;-87
2023/12/09 02:34:37;;;;;;;1.30;1.20;;;22.60;57.60;;;;;;5073435;28;20460;-88
2023/12/09 02:37:06;;;;;;;1.30;1.10;;;22.60;57.50;;;;;;5073346;28;21067;-87
2023/12/09 02:39:35;;;;;;;2.10;1.17;;;22.60;57.60;;;;;;5073276;28;20876;-87
2023/12/09 02:42:04;;;;;;;1.40;1.20;;;22.60;57.60;;;;;;5073174;28;20433;-90
2023/12/09 02:44:32;;;;;;;1.80;1.23;;;22.60;57.60;;;;;;5073191;28;20444;-87
2023/12/09 02:46:58;;;;;;;1.30;1.10;;;22.60;57.60;;;;;;5072980;28;20464;-87
2023/12/09 02:49:25;;;;;;;1.20;1.10;;;22.60;57.50;;;;;;5073400;28;20432;-91
2023/12/09 02:51:52;;;;;;;1.50;1.10;;;22.60;57.50;;;;;;5073079;28;20447;-88
2023/12/09 02:54:19;;;;;;;2.30;1.20;;;22.60;57.50;;;;;;5073389;28;20467;-88
2023/12/09 02:56:47;;;;;;;1.50;1.17;;;22.60;57.50;;;;;;5073015;28;20515;-90
2023/12/09 02:59:14;;;;;;;1.57;1.40;;;22.60;57.50;;;;;;5073084;28;20789;-90
2023/12/09 03:01:41;;;;;;;1.40;1.10;;;22.60;57.50;;;;;;5073192;28;20432;-88
2023/12/09 03:04:07;;;;;;;1.80;1.20;;;22.60;57.50;;;;;;5072934;28;20443;-90
2023/12/09 03:06:34;;;;;;;1.67;1.37;;;22.60;57.50;;;;;;5072992;28;20443;-88
2023/12/09 03:09:01;;;;;;;1.73;1.10;;;22.60;57.50;;;;;;5072779;28;20822;-87
2023/12/09 03:11:28;;;;;;;1.20;0.93;;;22.60;57.50;;;;;;5072911;28;20437;-91
2023/12/09 03:13:56;;;;;;;1.40;1.10;;;22.60;57.50;;;;;;5072832;28;20436;-87
2023/12/09 03:16:22;;;;;;;1.23;1.00;;;22.60;57.50;;;;;;5072993;28;20435;-87
2023/12/09 03:18:49;;;;;;;1.37;1.00;;;22.60;57.50;;;;;;5072682;28;20492;-88
2023/12/09 03:21:16;;;;;;;1.50;1.30;;;22.60;57.50;;;;;;5072778;28;20436;-87
2023/12/09 03:23:43;;;;;;;1.53;1.13;;;22.70;57.60;;;;;;5072747;28;20439;-90
2023/12/09 03:26:17;;;;;;;1.50;1.20;;;22.60;57.50;;;;;;5072741;28;20443;-87
2023/12/09 03:28:44;;;;;;;1.10;1.00;;;22.60;57.50;;;;;;5073056;28;20478;-87
2023/12/09 03:31:13;;;;;;;2.10;1.03;;;22.60;57.50;;;;;;5072692;28;20853;-87
2023/12/09 03:33:40;;;;;;;1.90;1.23;;;22.60;57.50;;;;;;5072798;28;20436;-89
2023/12/09 03:36:08;;;;;;;1.30;1.13;;;22.60;57.50;;;;;;5072682;28;20433;-90
2023/12/09 03:38:35;;;;;;;1.27;1.07;;;22.60;57.50;;;;;;5072493;28;20846;-89
2023/12/09 03:41:04;;;;;;;2.00;1.47;;;22.60;57.50;;;;;;5074475;28;20443;-90
2023/12/09 03:43:31;;;;;;;1.20;1.10;;;22.60;57.50;;;;;;5079910;28;20437;-87
2023/12/09 03:45:58;;;;;;;1.80;1.20;;;22.60;57.40;;;;;;5093253;28;20511;-87
2023/12/09 03:48:26;;;;;;;1.37;1.27;;;22.60;57.40;;;;;;5076223;28;20468;-90
2023/12/09 03:50:53;;;;;;;1.10;0.90;;;22.60;57.40;;;;;;5076574;28;20432;-90
2023/12/09 03:53:19;;;;;;;1.40;1.20;;;22.60;57.50;;;;;;5076143;28;20535;-88
2023/12/09 03:55:46;;;;;;;1.80;1.10;;;22.60;57.40;;;;;;5076108;28;20432;-87
2023/12/09 03:58:13;;;;;;;1.40;1.30;;;22.60;57.40;;;;;;5076092;28;20571;-87
2023/12/09 04:00:40;;;;;;;1.73;1.40;;;22.70;57.50;;;;;;5076009;28;20536;-87
2023/12/09 04:03:07;;;;;;;1.60;1.27;;;22.60;57.50;;;;;;5075827;28;21108;-87
2023/12/09 04:05:36;;;;;;;2.43;1.20;;;22.60;57.50;;;;;;5075920;28;20440;-87
2023/12/09 04:08:03;;;;;;;1.27;1.17;;;22.60;57.40;;;;;;5075769;28;20433;-87
2023/12/09 04:10:29;;;;;;;1.50;1.10;;;22.60;57.40;;;;;;5076113;28;20447;-90
2023/12/09 04:12:56;;;;;;;3.00;0.90;;;22.60;57.40;;;;;;5075794;28;20939;-90
2023/12/09 04:15:23;;;;;;;1.30;1.00;;;22.50;57.40;;;;;;5075794;28;20468;-88
2023/12/09 04:17:50;;;;;;;1.93;1.40;;;22.60;57.40;;;;;;5075625;28;20579;-90
2023/12/09 04:20:17;;;;;;;1.37;1.00;;;22.60;57.40;;;;;;5075814;28;20439;-91
2023/12/09 04:22:45;;;;;;;1.10;0.90;;;22.50;57.30;;;;;;5075573;28;20951;-90
2023/12/09 04:25:12;;;;;;;1.47;1.20;;;22.50;57.40;;;;;;5075676;28;20436;-90
2023/12/09 04:27:39;;;;;;;1.30;1.00;;;22.50;57.40;;;;;;5075601;28;20450;-87
2023/12/09 04:30:07;;;;;;;1.30;1.10;;;22.50;57.40;;;;;;5075547;28;20440;-87
2023/12/09 04:32:33;;;;;;;1.17;0.90;;;22.50;57.40;;;;;;5075588;28;20440;-88
2023/12/09 04:35:00;;;;;;;2.03;1.13;;;22.50;57.40;;;;;;5075442;28;20425;-88
2023/12/09 04:37:27;;;;;;;1.30;1.20;;;22.50;57.50;;;;;;5075510;28;20486;-90
2023/12/09 04:39:55;;;;;;;1.20;1.00;;;22.50;57.40;;;;;;5075028;28;20467;-89
2023/12/09 04:42:22;;;;;;;1.47;1.07;;;22.50;57.40;;;;;;5075344;28;20439;-87
2023/12/09 04:44:49;;;;;;;1.40;1.30;;;22.50;57.40;;;;;;5075286;28;20437;-87
2023/12/09 04:47:16;;;;;;;1.20;0.90;;;22.50;57.40;;;;;;5075073;28;20464;-90
2023/12/09 04:49:43;;;;;;;1.10;0.90;;;22.50;57.40;;;;;;5075088;28;20497;-91
2023/12/09 04:52:10;;;;;;;2.53;1.13;;;22.50;57.40;;;;;;5073989;28;20950;-90
2023/12/09 04:54:36;;;;;;;1.40;1.10;;;22.50;57.40;;;;;;5075034;28;20437;-87
2023/12/09 04:57:05;;;;;;;1.30;0.90;;;22.60;57.50;;;;;;5075029;28;20443;-87
2023/12/09 04:59:32;;;;;;;1.20;0.90;;;22.60;57.40;;;;;;5074876;28;20447;-87
2023/12/09 05:01:59;;;;;;;2.63;1.40;;;22.60;57.40;;;;;;5075154;28;20440;-90
2023/12/09 05:04:25;;;;;;;1.20;0.90;;;22.60;57.40;;;;;;5074914;28;20433;-87
2023/12/09 05:06:52;;;;;;;1.20;0.90;;;22.60;57.40;;;;;;5074930;28;20447;-87
2023/12/09 05:09:20;;;;;;;1.10;0.90;;;22.60;57.30;;;;;;5074848;28;20492;-88
2023/12/09 05:11:47;;;;;;;1.43;1.00;;;22.60;57.30;;;;;;5074796;28;20436;-90
2023/12/09 05:14:15;;;;;;;1.57;1.13;;;22.60;57.30;;;;;;5074419;28;20439;-90
2023/12/09 05:16:42;;;;;;;1.10;0.97;;;22.60;57.30;;;;;;5074584;28;20428;-89
2023/12/09 05:19:09;;;;;;;1.77;1.10;;;22.60;57.40;;;;;;5074455;28;20571;-87
2023/12/09 05:21:36;;;;;;;1.30;1.00;;;22.60;57.30;;;;;;5074476;28;20440;-88
2023/12/09 05:24:04;;;;;;;1.10;0.90;;;22.60;57.30;;;;;;5074514;28;20433;-87
2023/12/09 05:26:30;;;;;;;2.70;0.90;;;22.60;57.30;;;;;;5074446;28;20809;-87
2023/12/09 05:28:58;;;;;;;2.23;1.00;;;22.60;57.20;;;;;;5074251;28;20866;-87
2023/12/09 05:31:27;;;;;;;1.40;1.00;;;22.60;57.30;;;;;;5074290;28;20444;-87
2023/12/09 05:33:54;;;;;;;1.20;0.90;;;22.60;57.20;;;;;;5074319;28;20482;-87
2023/12/09 05:36:20;;;;;;;1.30;0.80;;;22.60;57.20;;;;;;5074350;28;20854;-89
2023/12/09 05:38:47;;;;;;;1.20;1.00;;;22.60;57.10;;;;;;5068906;28;20491;-90
2023/12/09 05:41:14;;;;;;;1.30;1.03;;;22.70;57.20;;;;;;5054028;28;20436;-88
2023/12/09 05:43:43;;;;;;;1.30;0.90;;;22.70;57.20;;;;;;5054097;28;20449;-90
2023/12/09 05:46:17;;;;;;;1.43;1.00;;;22.70;57.20;;;;;;5053966;28;20477;-89
2023/12/09 05:48:45;;;;;;;1.33;1.20;;;22.60;57.20;;;;;;5054026;28;20475;-90
2023/12/09 05:51:11;;;;;;;1.60;0.97;;;22.80;57.30;;;;;;5053934;28;20812;-87
2023/12/09 05:53:37;;;;;;;1.93;1.10;;;22.60;57.10;;;;;;5054120;28;20433;-87
2023/12/09 05:56:05;;;;;;;1.20;0.90;;;22.60;57.10;;;;;;5053923;28;20456;-89
2023/12/09 05:58:32;;;;;;;1.27;1.17;;;22.60;57.10;;;;;;5053755;28;21011;-87
2023/12/09 06:01:00;;;;;;;1.50;1.00;;;22.60;57.20;;;;;;5053636;28;20444;-89
2023/12/09 06:03:27;;;;;;;1.60;1.00;;;22.60;57.20;;;;;;5053558;28;20993;-89
2023/12/09 06:05:57;;;;;;;1.50;0.97;;;22.60;57.20;;;;;;5053730;28;20445;-87
2023/12/09 06:08:24;;;;;;;1.27;0.90;;;22.70;57.20;;;;;;5053504;28;20519;-88
2023/12/09 06:10:52;;;;;;;2.67;1.13;;;22.60;57.20;;;;;;5053686;28;20839;-87
2023/12/09 06:13:19;;;;;;;1.73;1.13;;;22.70;57.30;;;;;;5053816;28;20440;-89
2023/12/09 06:15:46;;;;;;;1.60;1.03;;;22.60;57.10;;;;;;5073139;28;20448;-88
2023/12/09 06:18:13;;;;;;;1.10;0.87;;;22.60;57.10;;;;;;5084507;28;20494;-87
2023/12/09 06:20:39;;;;;;;1.57;1.20;;;22.60;57.10;;;;;;5076515;28;20452;-90
2023/12/09 06:23:07;;;;;;;1.73;1.00;;;22.70;57.20;;;;;;5073709;28;20436;-87
2023/12/09 06:25:34;;;;;;;1.17;0.90;;;22.70;57.10;;;;;;5073423;28;20448;-89
2023/12/09 06:28:01;;;;;;;1.53;1.20;;;22.70;57.10;;;;;;5072055;28;20471;-88
2023/12/09 06:30:28;;;;;;;1.27;1.00;;;22.70;57.10;;;;;;5073629;28;20448;-90
2023/12/09 06:32:55;;;;;;;1.37;1.27;;;22.70;57.10;;;;;;5073103;28;20826;-87
2023/12/09 06:35:21;;;;;;;1.30;1.03;;;22.70;57.10;;;;;;5073458;28;20443;-90
2023/12/09 06:37:48;;;;;;;1.40;1.00;;;22.70;57.00;;;;;;5073433;28;20441;-89
2023/12/09 06:40:16;;;;;;;1.40;1.07;;;22.70;57.00;;;;;;5073399;28;20944;-90
2023/12/09 06:42:43;;;;;;;1.50;1.07;;;22.70;57.00;;;;;;5073424;28;20456;-87
2023/12/09 06:45:10;;;;;;;1.57;0.90;;;22.70;57.00;;;;;;5073616;28;20439;-87
2023/12/09 06:47:37;;;;;;;1.20;1.00;;;22.70;57.00;;;;;;5073116;28;20991;-89
2023/12/09 06:50:04;;;;;;;1.30;1.00;;;22.70;56.90;;;;;;5073301;28;20442;-87
2023/12/09 06:52:31;;;;;;;1.90;1.13;;;22.70;57.00;;;;;;5073391;28;20447;-88
2023/12/09 06:54:58;;;;;;;1.30;0.83;;;22.70;56.90;;;;;;5073300;28;20442;-87
2023/12/09 06:57:27;;;;;;;1.73;0.80;;;22.70;56.90;;;;;;5073476;28;20443;-88
2023/12/09 06:59:54;;;;;;;1.43;1.00;;;22.90;57.20;;;;;;5073273;28;20495;-90
2023/12/09 07:02:20;;;;;;;1.50;1.20;;;22.70;57.00;;;;;;5073167;28;21012;-90
2023/12/09 07:04:47;;;;;;;1.10;0.80;;;22.80;57.00;;;;;;5073295;28;20527;-90
2023/12/09 07:07:14;;;;;;;1.10;1.00;;;22.80;57.00;;;;;;5073231;28;20436;-89
2023/12/09 07:09:40;;;;;;;3.30;1.23;;;22.80;57.00;;;;;;5073082;28;20456;-89
2023/12/09 07:12:07;;;;;;;1.00;0.80;;;22.80;57.30;;;;;;5073155;28;20438;-90
2023/12/09 07:14:35;;;;;;;1.10;0.90;;;22.80;56.90;;;;;;5072065;28;20451;-89
2023/12/09 07:17:02;;;;;;;1.40;0.90;;;22.80;57.00;;;;;;5056675;28;20525;-88
2023/12/09 07:19:29;;;;;;;1.00;0.70;;;22.70;56.90;;;;;;5057114;28;20493;-90
2023/12/09 07:21:56;;;;;;;1.17;0.80;;;22.70;56.80;;;;;;5056932;28;20438;-90
2023/12/09 07:24:23;;;;;;;1.27;1.00;;;22.90;57.00;;;;;;5057165;28;20437;-89
2023/12/09 07:26:49;;;;;;;1.10;0.80;;;22.70;57.00;;;;;;5057179;28;20445;-88
2023/12/09 07:29:16;;;;;;;1.50;0.90;;;22.70;56.90;;;;;;5061372;28;20441;-90
2023/12/09 07:31:44;;;;;;;1.67;0.90;;;22.70;56.90;;;;;;5071891;28;20931;-87
2023/12/09 07:34:16;;;;;;;1.00;0.80;;;22.80;57.00;;;;;;5076920;28;20803;-88
2023/12/09 07:36:43;;;;;;;1.60;1.13;;;22.70;56.90;;;;;;5076847;28;20435;-88
2023/12/09 07:39:09;;;;;;;1.00;0.80;;;22.70;56.90;;;;;;5076763;28;20495;-87
2023/12/09 07:41:36;;;;;;;3.10;1.00;;;22.70;56.90;;;;;;5076464;28;20927;-88
2023/12/09 07:44:03;;;;;;;1.10;0.80;;;22.70;56.90;;;;;;5076580;28;20437;-89
2023/12/09 07:46:30;;;;;;;1.87;0.80;;;22.70;56.90;;;;;;5076710;28;20432;-87
2023/12/09 07:48:58;;;;;;;1.10;0.80;;;22.70;56.90;;;;;;5083198;28;20483;-89
2023/12/09 07:51:25;;;;;;;1.20;0.90;;;22.70;56.90;;;;;;5076560;28;20535;-89
2023/12/09 07:53:52;;;;;;;1.13;0.80;;;22.70;56.80;;;;;;5076509;28;20441;-88
2023/12/09 07:56:19;;;;;;;2.07;0.93;;;22.80;56.90;;;;;;5076300;28;20949;-87
2023/12/09 07:58:46;;;;;;;1.50;0.80;;;22.80;56.90;;;;;;5087598;28;20993;-88
2023/12/09 08:01:13;;;;;;;1.20;0.87;;;22.80;56.90;;;;;;5096735;28;20435;-88
2023/12/09 08:03:40;;;;;;;1.40;0.90;;;22.80;56.90;;;;;;5096775;28;20553;-87
2023/12/09 08:06:08;;;;;;;2.07;0.90;;;22.80;56.90;;;;;;5096431;28;20565;-87
2023/12/09 08:08:36;;;;;;;1.23;0.90;;;22.80;56.90;;;;;;5080607;28;20471;-87
2023/12/09 08:11:03;;;;;;;1.60;1.10;;;22.70;56.90;;;;;;5075932;28;20497;-87
2023/12/09 08:13:30;;;;;;;1.83;1.30;;;22.80;57.00;;;;;;5076212;28;20433;-88
2023/12/09 08:15:57;;;;;;;1.10;0.90;;;22.80;57.00;;;;;;5075823;28;20560;-89
2023/12/09 08:18:23;;;;;;;1.53;0.80;;;22.80;57.00;;;;;;5075430;28;20506;-89
2023/12/09 08:20:50;;;;;;;10.40;1.00;;;22.80;57.00;;;;;;5075507;28;20531;-89
2023/12/09 08:23:18;;;;;;;1.23;0.90;;;22.90;57.00;;;;;;5075675;28;20962;-89
2023/12/09 08:25:45;;;;;;;2.70;0.90;;;22.90;56.90;;;;;;5075191;28;20931;-88
2023/12/09 08:28:12;;;;;;;1.13;1.00;;;22.90;57.00;;;;;;5074610;28;20447;-87
2023/12/09 08:30:39;;;;;;;1.80;1.20;;;22.90;57.00;;;;;;5074664;28;20439;-89
2023/12/09 08:33:05;;;;;;;1.10;0.80;;;22.90;56.90;;;;;;5075172;28;20569;-89
2023/12/09 08:35:32;;;;;;;4.07;0.80;;;22.90;57.00;;;;;;5087664;28;20450;-88
2023/12/09 08:37:59;;;;;;;1.77;0.80;;;22.90;57.00;;;;;;5085980;28;20555;-88
2023/12/09 08:40:27;;;;;;;1.97;1.13;;;22.90;57.00;;;;;;5074107;28;20491;-88
2023/12/09 08:42:54;;;;;;;1.27;1.00;;;23.00;56.90;;;;;;5075125;28;20444;-87
2023/12/09 08:45:21;;;;;;;2.40;1.00;;;23.00;57.10;;;;;;5075581;28;20459;-89
2023/12/09 08:47:48;;;;;;;2.03;1.23;;;23.00;57.10;;;;;;5075514;28;20475;-89
2023/12/09 08:50:14;;;;;;;1.07;0.90;;;23.10;57.20;;;;;;5075347;28;20433;-87
2023/12/09 08:52:41;;;;;;;1.33;1.00;;;23.00;57.20;;;;;;5075461;28;20443;-89
2023/12/09 08:55:08;;;;;;;1.87;1.33;;;23.00;57.30;;;;;;5075470;28;20441;-89
2023/12/09 08:57:36;;;;;;;1.33;0.90;;;23.00;57.30;;;;;;5075458;28;20798;-89
2023/12/09 09:00:08;;;;;;;3.27;1.00;;;23.00;57.30;;;;;;5075291;28;20499;-87
2023/12/09 09:02:34;;;;;;;1.80;1.10;;;23.00;57.40;;;;;;5075335;28;20531;-89
2023/12/09 09:05:03;;;;;;;3.10;1.20;;;23.00;57.40;;;;;;5075040;28;20441;-88
2023/12/09 09:07:29;;;;;;;1.70;1.20;;;23.00;57.50;;;;;;5075380;28;20459;-87
2023/12/09 09:09:56;;;;;;;1.30;1.00;;;23.10;57.60;;;;;;5075166;28;20456;-89
2023/12/09 09:12:23;;;;;;;1.20;0.90;;;23.00;57.50;;;;;;5075232;28;20435;-87
2023/12/09 09:14:51;;;;;;;1.77;0.87;;;23.10;57.60;;;;;;5075153;28;20447;-89
2023/12/09 09:17:18;;;;;;;2.73;1.10;;;23.10;57.70;;;;;;5074853;28;20443;-88
2023/12/09 09:19:44;;;;;;;1.73;1.03;;;23.10;57.70;;;;;;5074711;28;20487;-89
2023/12/09 09:22:11;;;;;;;1.30;1.03;;;23.10;57.70;;;;;;5074973;28;20443;-89
2023/12/09 09:24:38;;;;;;;2.10;1.10;;;23.20;57.80;;;;;;5074704;28;20531;-90
2023/12/09 09:27:05;;;;;;;1.50;1.00;;;23.20;57.80;;;;;;5074547;28;20808;-88
2023/12/09 09:29:32;;;;;;;7.47;1.43;;;23.30;57.80;;;;;;5074501;28;20463;-88
2023/12/09 09:32:00;;;;;;;2.37;1.03;;;23.30;57.80;;;;;;5074529;28;20440;-88
2023/12/09 09:34:27;;;;;;;2.93;1.07;;;23.30;57.70;;;;;;5074920;28;20436;-89
2023/12/09 09:36:54;;;;;;;4.07;1.10;;;23.40;57.90;;;;;;5074827;28;20799;-91
2023/12/09 09:39:21;;;;;;;1.93;0.93;;;23.40;58.40;;;;;;5073623;28;20488;-91
2023/12/09 09:41:57;;;;;;;2.90;1.10;;;23.40;57.60;;;;;;5074225;28;20539;-87
2023/12/09 09:44:27;;;;;;;2.80;1.13;;;23.50;57.60;;;;;;5074397;28;20424;-87
2023/12/09 09:46:57;;;;;;;1.47;1.20;;;23.50;56.40;;;;;;5074173;28;20432;-92
2023/12/09 09:49:30;;;;;;;1.87;1.50;;;23.40;56.20;;;;;;5074193;28;20428;-87
2023/12/09 09:51:58;;;;;;;4.97;1.23;;;23.40;56.90;;;;;;5074093;28;20460;-91
2023/12/09 09:54:28;;;;;;;8.83;1.30;;;23.30;56.60;;;;;;5073041;28;20444;-88
2023/12/09 09:56:58;;;;;;;2.90;1.60;;;23.30;57.00;;;;;;5074377;28;20440;-88
2023/12/09 09:59:25;;;;;;;3.37;1.40;;;23.30;57.00;;;;;;5073997;28;20488;-88
2023/12/09 10:01:52;;;;;;;2.70;1.00;;;23.40;57.00;;;;;;5073690;28;20437;-88
2023/12/09 10:04:18;;;;;;;6.83;1.50;;;23.40;56.90;;;;;;5074134;28;20440;-88
2023/12/09 10:06:49;;;;;;;3.77;1.50;;;23.50;56.90;;;;;;5074320;28;20433;-88
2023/12/09 10:09:16;;;;;;;2.80;1.50;;;23.50;56.70;;;;;;5073611;28;20807;-88
2023/12/09 10:11:43;;;;;;;3.73;1.43;;;23.50;56.80;;;;;;5074059;28;20443;-88
2023/12/09 10:14:09;;;;;;;1.73;1.20;;;23.50;56.80;;;;;;5073907;28;20838;-88
2023/12/09 10:16:36;;;;;;;5.97;1.40;;;23.50;56.70;;;;;;5073552;28;20428;-88
2023/12/09 10:19:03;;;;;;;2.13;1.20;;;23.50;56.60;;;;;;5073498;28;20475;-88
2023/12/09 10:21:30;;;;;;;3.30;1.43;;;23.50;56.90;;;;;;5073982;28;20441;-88
2023/12/09 10:23:58;;;;;;;5.13;1.47;;;23.50;56.70;;;;;;5073900;28;20448;-88
2023/12/09 10:26:25;;;;;;;3.00;1.57;;;23.50;56.90;;;;;;5073758;28;20452;-88
2023/12/09 10:28:52;;;;;;;3.83;1.23;;;23.50;56.90;;;;;;5073694;28;20822;-88
2023/12/09 10:31:19;;;;;;;2.93;1.20;;;23.40;56.90;;;;;;5073710;28;20523;-88
2023/12/09 10:33:46;;;;;;;3.03;1.20;;;23.40;56.90;;;;;;5073773;28;20444;-88
2023/12/09 10:36:13;;;;;;;2.00;1.20;;;23.50;57.60;;;;;;5073421;28;20445;-88
2023/12/09 10:38:43;;;;;;;2.23;1.30;;;23.40;57.00;;;;;;5073444;28;20456;-88
2023/12/09 10:41:13;;;;;;;1.87;1.20;;;23.40;57.00;;;;;;5073685;28;20511;-88
2023/12/09 10:43:41;;;;;;;4.23;1.10;;;23.30;57.50;;;;;;5073498;28;20432;-88
2023/12/09 10:46:07;;;;;;;3.60;1.13;;;23.30;56.80;;;;;;5088623;28;20443;-87
2023/12/09 10:48:34;;;;;;;3.67;1.33;;;23.30;56.80;;;;;;5082958;28;20472;-88
2023/12/09 10:51:02;;;;;;;3.60;1.20;;;23.30;56.90;;;;;;5072271;28;20444;-88
2023/12/09 10:53:29;;;;;;;1.77;1.20;;;23.30;57.40;;;;;;5073531;28;20440;-88
2023/12/09 10:55:57;;;;;;;3.90;1.40;;;23.30;56.90;;;;;;5073218;28;20527;-88
2023/12/09 10:58:25;;;;;;;3.80;1.63;;;23.30;56.80;;;;;;5074301;28;20436;-88
2023/12/09 11:00:53;;;;;;;1.70;1.20;;;23.30;56.70;;;;;;5073336;28;20490;-88
2023/12/09 11:03:21;;;;;;;2.27;1.10;;;23.30;56.90;;;;;;5073254;28;20772;-89
2023/12/09 11:05:52;;;;;;;2.67;1.30;;;23.30;56.80;;;;;;5073578;28;20445;-88
2023/12/09 11:08:20;;;;;;;3.07;1.20;;;23.30;56.60;;;;;;5074230;28;20464;-88
2023/12/09 11:10:48;;;;;;;3.37;1.40;;;23.30;56.70;;;;;;5073252;28;20445;-88
2023/12/09 11:13:15;;;;;;;2.27;1.40;;;23.30;56.60;;;;;;5073421;28;20440;-88
2023/12/09 11:15:43;;;;;;;2.10;1.30;;;23.40;56.80;;;;;;5073581;28;20490;-89
2023/12/09 11:18:12;;;;;;;2.47;1.50;;;23.30;56.80;;;;;;5073203;28;20433;-88
2023/12/09 11:20:40;;;;;;;1.60;1.00;;;23.30;56.70;;;;;;5072966;28;20574;-88
2023/12/09 11:23:10;;;;;;;2.70;1.10;;;23.30;56.70;;;;;;5073277;28;20440;-88
2023/12/09 11:25:40;;;;;;;1.50;1.20;;;23.30;56.90;;;;;;5072969;28;20432;-87
2023/12/09 11:28:06;;;;;;;2.73;1.20;;;23.30;56.70;;;;;;5073199;28;20795;-88
2023/12/09 11:30:35;;;;;;;5.17;1.30;;;23.30;56.70;;;;;;5073162;28;20479;-88
2023/12/09 11:33:04;;;;;;;2.43;1.07;;;23.30;56.70;;;;;;5073026;28;20493;-88
2023/12/09 11:35:33;;;;;;;2.50;1.17;;;23.30;56.90;;;;;;5073272;28;20437;-88
2023/12/09 11:38:00;;;;;;;2.17;1.13;;;23.30;56.80;;;;;;5073064;28;20464;-87
2023/12/09 11:40:29;;;;;;;2.33;1.50;;;23.30;56.80;;;;;;5073112;28;20910;-89
2023/12/09 11:42:56;;;;;;;3.20;1.20;;;23.30;56.80;;;;;;5072855;28;20807;-88
2023/12/09 11:45:23;;;;;;;2.30;1.27;;;23.30;56.70;;;;;;5073142;28;20470;-87
2023/12/09 11:47:51;;;;;;;4.10;1.10;;;23.40;56.80;;;;;;5072835;28;20838;-87
2023/12/09 11:50:19;;;;;;;1.50;1.10;;;23.20;56.60;;;;;;5072901;28;20433;-88
2023/12/09 11:52:47;;;;;;;2.83;1.10;;;23.30;56.70;;;;;;5072991;28;20436;-88
2023/12/09 11:55:16;;;;;;;2.37;1.30;;;23.30;56.70;;;;;;5073169;28;20527;-88
2023/12/09 11:57:43;;;;;;;1.43;1.00;;;23.30;56.80;;;;;;5072713;28;20447;-88
2023/12/09 12:00:11;;;;;;;1.53;0.93;;;23.30;56.80;;;;;;5072467;28;20492;-88
2023/12/09 12:02:39;;;;;;;1.20;0.90;;;23.30;56.70;;;;;;5075293;28;20440;-88
2023/12/09 12:05:07;;;;;;;3.80;1.50;;;23.30;56.80;;;;;;5076370;28;20440;-88
2023/12/09 12:07:35;;;;;;;1.43;1.07;;;23.30;56.90;;;;;;5076314;28;20452;-88
2023/12/09 12:10:02;;;;;;;3.03;1.20;;;23.30;56.90;;;;;;5064818;28;20433;-88
2023/12/09 12:12:29;;;;;;;1.30;1.03;;;23.30;56.80;;;;;;5056215;28;20915;-88
2023/12/09 12:14:56;;;;;;;2.70;1.40;;;23.30;56.80;;;;;;5056103;28;20532;-88
2023/12/09 12:17:23;;;;;;;1.70;1.27;;;23.30;56.80;;;;;;5055886;28;20468;-88
2023/12/09 12:19:50;;;;;;;2.23;1.20;;;23.30;56.90;;;;;;5055960;28;20505;-88
2023/12/09 12:22:18;;;;;;;1.33;1.10;;;23.30;56.90;;;;;;5055901;28;20477;-88
2023/12/09 12:24:47;;;;;;;1.23;0.87;;;23.20;56.80;;;;;;5055941;28;20807;-88
2023/12/09 12:27:14;;;;;;;2.77;1.50;;;23.30;56.90;;;;;;5055735;28;20484;-88
2023/12/09 12:29:42;;;;;;;1.43;0.90;;;23.30;56.90;;;;;;5055575;28;20445;-88
2023/12/09 12:32:12;;;;;;;1.97;1.10;;;23.30;56.90;;;;;;5055710;28;20484;-88
2023/12/09 12:34:45;;;;;;;2.40;1.20;;;23.20;56.80;;;;;;5055529;28;20477;-88
2023/12/09 12:37:12;;;;;;;2.37;1.33;;;23.30;56.90;;;;;;5056131;28;20425;-88
2023/12/09 12:39:39;;;;;;;2.90;1.30;;;23.20;56.90;;;;;;5055403;28;20493;-88
2023/12/09 12:42:08;;;;;;;1.50;0.87;;;23.20;56.90;;;;;;5056553;28;20541;-88
2023/12/09 12:44:35;;;;;;;1.20;1.00;;;23.20;56.90;;;;;;5055566;28;20932;-88
2023/12/09 12:47:02;;;;;;;1.53;1.30;;;23.20;56.80;;;;;;5055127;28;20552;-88
2023/12/09 12:49:35;;;;;;;1.47;1.10;;;23.20;56.90;;;;;;5055648;28;20496;-88